Time;durP1;ratioP1;P1;durP2;ratioP2;P2;SDS_P1;SDS_P2;PMS_P1;PMS_P2;Temp;Humidity;BMP_temperature;BMP_pressure;BME280_temperature;BME280_humidity;BME280_pressure;Samples;Min_cycle;Max_cycle;Signal;HPM_P1;HPM_P2
2022/12/26 00:01:45;;;;;;;18.10;7.00;;;9.30;99.90;;;;;;5017630;28;20041;-72
2022/12/26 00:04:11;;;;;;;20.10;7.40;;;9.30;99.90;;;;;;5019002;28;20091;-72
2022/12/26 00:06:36;;;;;;;24.65;8.00;;;9.40;99.90;;;;;;5017099;28;20522;-71
2022/12/26 00:09:04;;;;;;;18.75;7.07;;;9.40;99.90;;;;;;5019611;28;20181;-72
2022/12/26 00:11:30;;;;;;;21.20;7.50;;;9.40;99.90;;;;;;5016875;28;20103;-71
2022/12/26 00:13:59;;;;;;;31.98;7.95;;;9.40;99.90;;;;;;5018700;28;20045;-70
2022/12/26 00:16:25;;;;;;;20.23;7.57;;;9.40;99.90;;;;;;5017541;28;20038;-72
2022/12/26 00:18:51;;;;;;;25.80;8.35;;;9.40;99.90;;;;;;5018143;28;20144;-71
2022/12/26 00:21:18;;;;;;;22.05;8.35;;;9.40;99.90;;;;;;5018293;28;20052;-73
2022/12/26 00:23:44;;;;;;;21.67;7.65;;;9.30;99.90;;;;;;5018411;28;20030;-71
2022/12/26 00:26:16;;;;;;;25.52;8.75;;;9.40;99.90;;;;;;4999522;28;20037;-71
2022/12/26 00:28:42;;;;;;;22.60;7.78;;;9.30;99.90;;;;;;4998331;28;20026;-71
2022/12/26 00:31:15;;;;;;;19.27;8.00;;;9.40;99.90;;;;;;5013300;28;20038;-71
2022/12/26 00:33:40;;;;;;;22.70;7.65;;;9.40;99.90;;;;;;5019151;28;20042;-72
2022/12/26 00:36:12;;;;;;;24.58;9.25;;;9.40;99.90;;;;;;5019604;28;20038;-71
2022/12/26 00:38:39;;;;;;;26.92;8.93;;;9.30;99.90;;;;;;5017379;28;20033;-72
2022/12/26 00:41:06;;;;;;;22.38;8.60;;;9.40;99.90;;;;;;5018857;28;20055;-72
2022/12/26 00:43:32;;;;;;;26.00;9.27;;;9.40;99.90;;;;;;4998106;28;20228;-73
2022/12/26 00:45:58;;;;;;;25.50;9.23;;;9.40;99.90;;;;;;5018812;28;20120;-71
2022/12/26 00:48:24;;;;;;;25.20;9.77;;;9.40;99.90;;;;;;5017230;28;20045;-71
2022/12/26 00:50:50;;;;;;;29.30;9.10;;;9.30;99.90;;;;;;5017502;28;20407;-71
2022/12/26 00:53:16;;;;;;;22.83;9.13;;;9.30;99.90;;;;;;5015689;28;20037;-71
2022/12/26 00:55:41;;;;;;;23.13;9.43;;;9.30;99.90;;;;;;5015519;28;20040;-71
2022/12/26 00:58:07;;;;;;;28.38;9.80;;;9.30;99.90;;;;;;5018418;28;20036;-72
2022/12/26 01:00:33;;;;;;;28.00;9.63;;;9.40;99.90;;;;;;5016212;28;20034;-71
2022/12/26 01:02:58;;;;;;;30.58;10.52;;;9.40;99.90;;;;;;5018475;28;20033;-71
2022/12/26 01:05:24;;;;;;;28.13;10.85;;;9.30;99.90;;;;;;5017018;28;20034;-71
2022/12/26 01:07:49;;;;;;;28.23;10.85;;;9.30;99.90;;;;;;5017754;28;20056;-71
2022/12/26 01:10:15;;;;;;;28.40;10.38;;;9.40;99.90;;;;;;4999953;28;20083;-70
2022/12/26 01:12:40;;;;;;;28.42;10.32;;;9.30;99.90;;;;;;5017675;28;20067;-71
2022/12/26 01:15:07;;;;;;;27.75;11.02;;;9.30;99.90;;;;;;5019051;28;20030;-71
2022/12/26 01:17:33;;;;;;;30.55;11.25;;;9.40;99.90;;;;;;5019957;28;20033;-71
2022/12/26 01:20:00;;;;;;;31.35;10.65;;;9.40;99.90;;;;;;5015589;28;20049;-70
2022/12/26 01:22:26;;;;;;;28.92;10.50;;;9.30;99.90;;;;;;5014288;28;20498;-72
2022/12/26 01:24:58;;;;;;;25.42;10.27;;;9.30;99.90;;;;;;5017747;28;20092;-70
2022/12/26 01:27:25;;;;;;;28.90;11.02;;;9.40;99.90;;;;;;5009554;28;20125;-71
2022/12/26 01:29:55;;;;;;;31.80;11.48;;;9.30;99.90;;;;;;5000572;28;20110;-71
2022/12/26 01:32:21;;;;;;;28.50;11.40;;;9.30;99.90;;;;;;5015953;28;20053;-72
2022/12/26 01:34:47;;;;;;;29.20;11.57;;;9.30;99.90;;;;;;5017917;28;20116;-71
2022/12/26 01:37:14;;;;;;;24.67;10.27;;;9.30;99.90;;;;;;5016281;28;20076;-71
2022/12/26 01:39:39;;;;;;;28.00;11.90;;;9.30;99.90;;;;;;5014569;28;20134;-71
2022/12/26 01:42:12;;;;;;;29.20;10.98;;;9.20;99.90;;;;;;5017523;28;20438;-71
2022/12/26 01:44:57;;;;;;;27.77;10.40;;;9.20;99.90;;;;;;5016551;28;20034;-71
2022/12/26 01:47:24;;;;;;;29.67;11.88;;;9.20;99.90;;;;;;5015014;28;20065;-71
2022/12/26 01:49:53;;;;;;;28.90;10.95;;;9.20;99.90;;;;;;5017135;28;20048;-71
2022/12/26 01:52:42;;;;;;;22.45;10.80;;;9.20;99.90;;;;;;5015852;28;20049;-71
2022/12/26 01:55:13;;;;;;;23.17;9.70;;;9.30;99.90;;;;;;5016122;28;20111;-71
2022/12/26 01:57:46;;;;;;;25.63;10.52;;;9.30;99.90;;;;;;5016868;28;20050;-71
2022/12/26 02:00:13;;;;;;;24.10;10.30;;;9.30;99.90;;;;;;5016298;28;20082;-71
2022/12/26 02:05:33;;;;;;;20.42;8.80;;;9.20;99.90;;;;;;5010118;28;20509;-71
2022/12/26 02:08:16;;;;;;;25.13;9.43;;;9.20;99.90;;;;;;5011385;28;20061;-72
2022/12/26 02:11:06;;;;;;;19.55;8.57;;;9.20;99.90;;;;;;5017078;28;20037;-71
2022/12/26 02:13:35;;;;;;;19.58;8.38;;;9.20;99.90;;;;;;5012907;28;20683;-71
2022/12/26 02:16:02;;;;;;;21.08;9.00;;;9.10;99.90;;;;;;5021331;28;20044;-69
2022/12/26 02:18:27;;;;;;;19.13;9.13;;;9.20;99.90;;;;;;5019516;28;20065;-70
2022/12/26 02:21:27;;;;;;;21.13;8.75;;;9.10;99.90;;;;;;5014201;28;20057;-72
2022/12/26 02:24:27;;;;;;;19.08;8.32;;;9.20;99.90;;;;;;5020910;28;20041;-71
2022/12/26 02:27:04;;;;;;;17.08;7.93;;;9.20;99.90;;;;;;5016127;28;20060;-70
2022/12/26 02:29:51;;;;;;;18.85;8.68;;;9.20;99.90;;;;;;5016328;28;20125;-71
2022/12/26 02:32:47;;;;;;;20.02;8.25;;;9.20;99.90;;;;;;5001522;28;20049;-69
2022/12/26 02:35:43;;;;;;;20.70;9.00;;;9.10;99.90;;;;;;5019722;28;20057;-70
2022/12/26 02:38:28;;;;;;;21.75;8.85;;;9.10;99.90;;;;;;5017744;28;20045;-71
2022/12/26 02:41:10;;;;;;;18.13;8.45;;;9.10;99.90;;;;;;5013259;28;20518;-71
2022/12/26 02:43:47;;;;;;;17.63;8.23;;;9.00;99.90;;;;;;5017733;28;20038;-70
2022/12/26 02:49:03;;;;;;;16.85;8.60;;;9.10;99.90;;;;;;5015865;28;20044;-69
2022/12/26 03:15:17;;;;;;;19.45;9.40;;;9.30;99.90;;;;;;5013259;28;20080;-71
2022/12/26 03:17:45;;;;;;;;;;;9.20;99.90;;;;;;4996656;28;20037;-70
2022/12/26 03:20:18;;;;;;;21.15;9.77;;;9.20;99.90;;;;;;5016936;28;19913;-71
2022/12/26 03:23:15;;;;;;;18.08;8.98;;;9.30;99.90;;;;;;5016271;28;20774;-71
2022/12/26 03:28:34;;;;;;;17.80;8.50;;;9.30;99.90;;;;;;5016799;28;20091;-71
2022/12/26 03:31:05;;;;;;;22.80;9.88;;;9.20;99.90;;;;;;5014299;28;20121;-72
2022/12/26 03:36:45;;;;;;;18.23;8.82;;;9.30;99.90;;;;;;5017326;28;20140;-71
2022/12/26 04:19:22;;;;;;;19.30;9.32;;;9.20;99.90;;;;;;5000239;28;20546;-71
2022/12/26 04:21:00;;;;;;;16.55;6.35;;;9.10;99.90;;;;;;5019075;28;20040;-71
2022/12/26 04:46:37;;;;;;;8.77;4.20;;;8.80;99.90;;;;;;5016842;28;20060;-68
2022/12/26 04:51:55;;;;;;;9.90;4.10;;;8.70;99.90;;;;;;5013504;28;20069;-70
2022/12/26 04:54:21;;;;;;;6.65;3.78;;;8.70;99.90;;;;;;5020079;28;20144;-70
2022/12/26 04:56:47;;;;;;;8.35;4.13;;;8.70;99.90;;;;;;5016952;28;20557;-73
2022/12/26 04:59:13;;;;;;;11.02;3.70;;;8.60;99.90;;;;;;5018478;28;20105;-72
2022/12/26 05:10:24;;;;;;;5.75;3.22;;;8.60;99.90;;;;;;5018351;28;20040;-71
2022/12/26 05:12:50;;;;;;;6.60;3.80;;;8.60;99.90;;;;;;5013945;28;20043;-69
2022/12/26 05:15:16;;;;;;;7.57;3.58;;;8.50;99.90;;;;;;5018628;28;20501;-72
2022/12/26 05:28:58;;;;;;;8.13;3.92;;;8.50;99.90;;;;;;5010984;28;20032;-72
2022/12/26 05:31:24;;;;;;;7.80;3.50;;;8.50;99.90;;;;;;5018161;28;20517;-71
2022/12/26 05:34:05;;;;;;;8.95;4.15;;;8.40;99.90;;;;;;5015594;28;20109;-71
2022/12/26 05:36:45;;;;;;;11.05;4.82;;;8.40;99.90;;;;;;5017308;28;20043;-71
2022/12/26 05:39:10;;;;;;;7.80;3.00;;;8.40;99.90;;;;;;5017762;28;20045;-71
2022/12/26 05:41:37;;;;;;;8.57;2.83;;;8.40;99.90;;;;;;4999277;28;20183;-68
2022/12/26 05:44:03;;;;;;;5.85;2.70;;;8.50;99.90;;;;;;5016973;28;20037;-71
2022/12/26 05:46:29;;;;;;;10.15;2.78;;;8.40;99.90;;;;;;5017709;28;20052;-71
2022/12/26 05:48:54;;;;;;;16.17;3.88;;;8.40;99.90;;;;;;5017046;28;20030;-71
2022/12/26 05:51:20;;;;;;;5.35;2.50;;;8.40;99.90;;;;;;5022196;28;20049;-70
2022/12/26 05:53:47;;;;;;;6.53;2.45;;;8.50;99.90;;;;;;5019479;28;20042;-70
2022/12/26 05:56:14;;;;;;;8.98;2.63;;;8.50;99.90;;;;;;5008802;28;20033;-71
2022/12/26 05:58:40;;;;;;;6.47;2.38;;;8.60;99.90;;;;;;5015544;28;20042;-71
2022/12/26 06:01:17;;;;;;;5.53;2.00;;;8.60;99.90;;;;;;5018201;28;20042;-71
2022/12/26 06:03:47;;;;;;;5.88;2.53;;;8.60;99.90;;;;;;5015087;28;20044;-71
2022/12/26 06:06:14;;;;;;;6.15;2.35;;;8.70;99.90;;;;;;5014777;28;20034;-71
2022/12/26 06:08:39;;;;;;;3.92;1.88;;;8.60;99.90;;;;;;5016233;28;20056;-71
2022/12/26 06:11:07;;;;;;;3.22;1.67;;;8.70;99.90;;;;;;5015139;28;20502;-74
2022/12/26 06:13:33;;;;;;;3.85;2.03;;;8.70;99.90;;;;;;5019625;28;20125;-71
2022/12/26 06:16:02;;;;;;;4.10;1.42;;;8.70;99.90;;;;;;5020205;28;20040;-71
2022/12/26 06:18:28;;;;;;;2.45;1.13;;;8.60;99.90;;;;;;5020681;28;20060;-69
2022/12/26 06:20:53;;;;;;;4.20;2.22;;;8.70;99.90;;;;;;5019980;28;20494;-70
2022/12/26 06:23:19;;;;;;;6.68;2.05;;;8.70;99.90;;;;;;5022200;28;20033;-71
2022/12/26 06:25:51;;;;;;;3.53;1.70;;;8.60;99.90;;;;;;5016404;28;20097;-70
2022/12/26 06:28:16;;;;;;;4.28;1.80;;;8.60;99.90;;;;;;5022259;28;20033;-71
2022/12/26 06:30:42;;;;;;;4.85;1.50;;;8.60;99.90;;;;;;5022436;28;20111;-71
2022/12/26 06:33:08;;;;;;;2.75;1.60;;;8.50;99.90;;;;;;5017314;28;20470;-71
2022/12/26 06:35:33;;;;;;;5.90;2.22;;;8.50;99.90;;;;;;5021849;28;20041;-72
2022/12/26 06:37:59;;;;;;;5.30;1.95;;;8.60;99.90;;;;;;5019458;28;20763;-72
2022/12/26 06:40:24;;;;;;;6.57;2.17;;;8.60;99.90;;;;;;5023510;28;20120;-71
2022/12/26 06:42:50;;;;;;;6.80;2.45;;;8.50;99.90;;;;;;5020724;28;20033;-71
2022/12/26 06:45:15;;;;;;;4.90;1.90;;;8.60;99.90;;;;;;5018357;28;20068;-71
2022/12/26 06:47:41;;;;;;;6.20;2.10;;;8.70;99.90;;;;;;5022503;28;20095;-71
2022/12/26 06:50:07;;;;;;;7.32;2.03;;;8.70;99.90;;;;;;5017997;28;20042;-70
2022/12/26 06:52:32;;;;;;;4.35;1.75;;;8.70;99.90;;;;;;5021670;28;20133;-71
2022/12/26 06:54:58;;;;;;;3.70;1.50;;;8.70;99.90;;;;;;5019183;28;20057;-71
2022/12/26 06:57:24;;;;;;;7.85;1.70;;;8.80;99.90;;;;;;5020454;28;20491;-71
2022/12/26 06:59:49;;;;;;;2.58;1.58;;;8.80;99.90;;;;;;5020268;28;20033;-71
2022/12/26 07:02:15;;;;;;;2.90;1.65;;;8.80;99.90;;;;;;5018007;28;20053;-71
2022/12/26 07:04:41;;;;;;;6.88;1.67;;;8.80;99.90;;;;;;5022531;28;20041;-72
2022/12/26 07:07:06;;;;;;;5.40;1.30;;;8.80;99.90;;;;;;5017833;28;20447;-71
2022/12/26 07:09:32;;;;;;;10.68;2.42;;;8.80;99.90;;;;;;5021281;28;20034;-70
2022/12/26 07:11:57;;;;;;;3.72;1.50;;;8.70;99.90;;;;;;5019349;28;20545;-70
2022/12/26 07:14:23;;;;;;;3.63;1.15;;;8.80;99.90;;;;;;5019940;28;20057;-72
2022/12/26 07:16:49;;;;;;;3.35;1.23;;;8.80;99.90;;;;;;5017181;28;20189;-71
2022/12/26 07:19:15;;;;;;;3.60;1.63;;;8.80;99.90;;;;;;5020333;28;20036;-71
2022/12/26 07:21:41;;;;;;;3.38;1.30;;;8.80;99.90;;;;;;5021399;28;20033;-70
2022/12/26 07:24:17;;;;;;;2.38;1.20;;;8.80;99.90;;;;;;4995291;28;20030;-71
2022/12/26 07:26:43;;;;;;;3.10;1.63;;;8.80;99.90;;;;;;5011821;28;20084;-71
2022/12/26 07:29:09;;;;;;;6.68;1.27;;;8.80;99.90;;;;;;5017486;28;20537;-70
2022/12/26 07:31:35;;;;;;;6.68;1.15;;;8.80;99.90;;;;;;5022289;28;20029;-70
2022/12/26 07:34:00;;;;;;;4.60;1.10;;;8.80;99.90;;;;;;5017632;28;20049;-70
2022/12/26 07:36:26;;;;;;;3.90;1.20;;;8.90;99.90;;;;;;5020821;28;20045;-71
2022/12/26 07:38:52;;;;;;;8.02;2.08;;;8.90;99.90;;;;;;5019416;28;20033;-70
2022/12/26 07:44:02;;;;;;;5.07;1.50;;;8.90;99.90;;;;;;5017193;28;20044;-72
2022/12/26 07:46:28;;;;;;;2.80;1.33;;;8.80;99.90;;;;;;5020386;28;20041;-71
2022/12/26 07:48:54;;;;;;;6.22;1.17;;;8.90;99.90;;;;;;5018326;28;20095;-71
2022/12/26 07:51:20;;;;;;;2.42;1.25;;;9.00;99.90;;;;;;5019585;28;20430;-71
2022/12/26 07:53:47;;;;;;;3.60;1.30;;;9.00;99.90;;;;;;5020157;28;20406;-71
2022/12/26 07:56:12;;;;;;;5.75;1.48;;;9.00;99.90;;;;;;5017699;28;20231;-70
2022/12/26 07:58:38;;;;;;;5.05;1.55;;;9.10;99.90;;;;;;5021637;28;20632;-71
2022/12/26 08:01:05;;;;;;;3.05;0.98;;;9.10;99.90;;;;;;5016983;28;20034;-70
2022/12/26 08:03:31;;;;;;;3.80;1.30;;;9.10;99.90;;;;;;5020590;28;20192;-71
2022/12/26 08:05:57;;;;;;;3.00;1.40;;;9.10;99.90;;;;;;5017797;28;20397;-70
2022/12/26 08:08:23;;;;;;;6.32;1.27;;;9.10;99.90;;;;;;5019594;28;20042;-71
2022/12/26 08:10:56;;;;;;;3.25;1.60;;;9.10;99.90;;;;;;5019985;28;20033;-71
2022/12/26 08:13:22;;;;;;;3.65;1.10;;;9.10;99.90;;;;;;5018892;28;20053;-71
2022/12/26 08:15:48;;;;;;;5.45;1.00;;;9.10;99.90;;;;;;5019484;28;20478;-71
2022/12/26 08:18:13;;;;;;;6.50;0.80;;;9.10;99.90;;;;;;5015822;28;20033;-71
2022/12/26 08:20:39;;;;;;;6.82;1.30;;;9.10;99.90;;;;;;5017593;28;20037;-71
2022/12/26 08:23:04;;;;;;;5.22;1.52;;;9.10;99.90;;;;;;5019219;28;20464;-71
2022/12/26 08:25:30;;;;;;;5.15;1.60;;;9.10;99.90;;;;;;5010910;28;20026;-71
2022/12/26 08:27:55;;;;;;;5.22;1.00;;;9.10;99.90;;;;;;5013530;28;20462;-69
2022/12/26 08:30:21;;;;;;;6.00;1.52;;;9.10;99.90;;;;;;5018970;28;20033;-71
2022/12/26 08:32:46;;;;;;;3.15;0.93;;;9.20;99.90;;;;;;5016381;28;20124;-71
2022/12/26 08:35:12;;;;;;;5.20;1.20;;;9.20;99.90;;;;;;5019105;28;20062;-71
2022/12/26 08:37:38;;;;;;;12.18;1.45;;;9.20;99.90;;;;;;5017099;28;20108;-72
2022/12/26 08:40:04;;;;;;;4.47;1.80;;;9.20;99.90;;;;;;5019908;28;20041;-71
2022/12/26 08:42:29;;;;;;;5.25;1.50;;;9.30;99.90;;;;;;5017354;28;20084;-71
2022/12/26 08:44:55;;;;;;;3.72;1.10;;;9.30;99.90;;;;;;5018213;28;20038;-70
2022/12/26 08:47:25;;;;;;;4.32;1.60;;;9.30;99.90;;;;;;5018342;28;20120;-71
2022/12/26 08:49:50;;;;;;;2.10;1.30;;;9.30;99.90;;;;;;5000869;28;20046;-71
2022/12/26 08:52:16;;;;;;;4.50;1.88;;;9.30;99.90;;;;;;5017268;28;20551;-71
2022/12/26 08:54:41;;;;;;;4.78;1.40;;;9.30;99.90;;;;;;5017047;28;20113;-69
2022/12/26 08:57:08;;;;;;;3.42;1.60;;;9.30;99.90;;;;;;5008722;28;20037;-73
2022/12/26 08:59:34;;;;;;;4.03;1.48;;;9.30;99.90;;;;;;5015119;28;20505;-72
2022/12/26 09:01:59;;;;;;;5.00;1.50;;;9.30;99.90;;;;;;5018929;28;20045;-73
2022/12/26 09:04:25;;;;;;;4.47;1.48;;;9.30;99.90;;;;;;5017064;28;20041;-72
2022/12/26 09:06:51;;;;;;;5.57;1.95;;;9.20;99.90;;;;;;5018908;28;20029;-71
2022/12/26 09:09:16;;;;;;;5.30;1.88;;;9.20;99.90;;;;;;5009110;28;20555;-71
2022/12/26 09:11:42;;;;;;;7.57;1.10;;;9.20;99.90;;;;;;5017571;28;20030;-71
2022/12/26 09:14:09;;;;;;;3.42;1.33;;;9.20;99.90;;;;;;5014335;28;20037;-72
2022/12/26 09:16:41;;;;;;;8.07;1.67;;;9.20;99.90;;;;;;5013936;28;20034;-71
2022/12/26 09:19:13;;;;;;;4.00;0.77;;;9.20;99.90;;;;;;5016959;28;20025;-71
2022/12/26 09:21:39;;;;;;;7.55;0.95;;;9.10;99.90;;;;;;5015682;28;20044;-71
2022/12/26 09:24:09;;;;;;;3.80;0.70;;;9.20;99.90;;;;;;5017034;28;20037;-72
2022/12/26 09:26:35;;;;;;;8.90;1.80;;;9.10;99.90;;;;;;5016134;28;20518;-71
2022/12/26 09:29:02;;;;;;;6.38;1.48;;;9.00;99.90;;;;;;5012901;28;20056;-71
2022/12/26 09:31:30;;;;;;;5.75;1.40;;;9.00;99.90;;;;;;5018427;28;20037;-71
2022/12/26 09:33:56;;;;;;;15.57;0.68;;;9.00;99.90;;;;;;5013942;28;20042;-69
2022/12/26 09:36:26;;;;;;;7.18;0.80;;;9.00;99.90;;;;;;5017213;28;20042;-72
2022/12/26 09:38:54;;;;;;;7.73;1.70;;;9.00;99.90;;;;;;5014611;28;20041;-71
2022/12/26 09:41:55;;;;;;;4.95;1.73;;;9.10;99.90;;;;;;5015947;28;20459;-71
2022/12/26 09:44:44;;;;;;;10.40;1.63;;;8.90;99.90;;;;;;5014471;28;20054;-71
2022/12/26 09:47:39;;;;;;;11.40;1.85;;;8.70;99.90;;;;;;5011410;28;20080;-73
2022/12/26 09:50:08;;;;;;;10.90;1.08;;;8.60;99.90;;;;;;5010611;28;20037;-71
2022/12/26 09:52:38;;;;;;;8.90;1.52;;;8.40;99.90;;;;;;5000137;28;20041;-71
2022/12/26 09:55:36;;;;;;;13.18;1.70;;;8.40;99.90;;;;;;5014244;28;20041;-71
2022/12/26 09:58:27;;;;;;;8.55;1.95;;;8.30;99.90;;;;;;5008450;28;20038;-71
2022/12/26 10:00:56;;;;;;;5.03;0.93;;;8.30;99.90;;;;;;4996946;28;20100;-72
2022/12/26 10:03:23;;;;;;;10.23;0.98;;;8.20;99.90;;;;;;5017045;28;20037;-71
2022/12/26 10:06:06;;;;;;;14.45;2.33;;;8.20;99.90;;;;;;5015826;28;20445;-68
2022/12/26 10:08:59;;;;;;;8.65;0.98;;;8.20;99.90;;;;;;5010797;28;20030;-70
2022/12/26 10:11:47;;;;;;;9.15;0.68;;;8.10;99.90;;;;;;5014082;28;20042;-70
2022/12/26 10:14:22;;;;;;;17.75;1.58;;;8.10;99.90;;;;;;5013084;28;20046;-70
2022/12/26 10:17:08;;;;;;;8.38;1.65;;;8.00;99.90;;;;;;5014613;28;20117;-71
2022/12/26 10:20:16;;;;;;;9.73;1.48;;;8.00;99.90;;;;;;5010869;28;20046;-71
2022/12/26 10:23:00;;;;;;;10.57;1.08;;;8.00;99.90;;;;;;5012981;28;20037;-72
2022/12/26 10:25:48;;;;;;;4.45;1.08;;;7.90;99.90;;;;;;5010345;28;20118;-71
2022/12/26 10:28:40;;;;;;;10.43;1.38;;;8.00;99.90;;;;;;5013981;28;20088;-73
2022/12/26 10:31:17;;;;;;;12.68;1.20;;;8.00;99.90;;;;;;5012998;28;20116;-71
2022/12/26 10:34:07;;;;;;;6.90;1.13;;;7.90;99.90;;;;;;5016475;28;20042;-68
2022/12/26 10:36:45;;;;;;;4.07;0.63;;;8.00;99.90;;;;;;5015956;28;20050;-72
2022/12/26 10:39:35;;;;;;;6.05;0.95;;;8.00;99.90;;;;;;5000115;28;20087;-71
2022/12/26 10:42:13;;;;;;;10.13;1.43;;;8.00;99.90;;;;;;5004883;28;20046;-70
2022/12/26 10:44:39;;;;;;;12.30;2.50;;;7.90;99.90;;;;;;5005073;28;20056;-71
2022/12/26 10:47:20;;;;;;;3.03;0.50;;;7.90;99.90;;;;;;5006767;28;20034;-71
2022/12/26 10:49:46;;;;;;;5.65;0.35;;;7.90;99.90;;;;;;5011595;28;20046;-73
2022/12/26 10:52:15;;;;;;;8.27;0.65;;;7.90;99.90;;;;;;5006831;28;20037;-71
2022/12/26 10:54:41;;;;;;;2.45;0.85;;;7.90;99.90;;;;;;5012506;28;20093;-71
2022/12/26 10:57:07;;;;;;;4.25;0.47;;;8.10;99.90;;;;;;5010807;28;20037;-71
2022/12/26 10:59:53;;;;;;;4.10;0.40;;;8.20;99.90;;;;;;5008565;28;20606;-71
2022/12/26 11:02:28;;;;;;;4.75;0.50;;;8.30;99.90;;;;;;5007243;28;20092;-72
2022/12/26 11:05:08;;;;;;;4.88;0.50;;;8.30;99.90;;;;;;5005385;28;20033;-73
2022/12/26 11:07:53;;;;;;;3.13;0.20;;;8.30;99.90;;;;;;5009226;28;20026;-71
2022/12/26 11:10:26;;;;;;;1.15;0.30;;;8.20;99.90;;;;;;5015676;28;20037;-71
2022/12/26 11:12:55;;;;;;;10.50;0.70;;;8.10;99.90;;;;;;5019874;28;20343;-71
2022/12/26 11:15:40;;;;;;;4.88;0.30;;;8.00;99.90;;;;;;5014068;28;20036;-71
2022/12/26 11:18:14;;;;;;;3.28;0.38;;;7.90;99.90;;;;;;5015060;28;20042;-72
2022/12/26 11:20:40;;;;;;;4.50;0.45;;;7.80;99.90;;;;;;5009960;28;20407;-72
2022/12/26 11:23:25;;;;;;;10.68;1.33;;;7.80;99.90;;;;;;5007323;28;20034;-71
2022/12/26 11:25:56;;;;;;;7.25;0.55;;;7.70;99.90;;;;;;5008451;28;20120;-72
2022/12/26 11:28:39;;;;;;;2.95;0.73;;;7.60;99.90;;;;;;5007161;28;20038;-71
2022/12/26 11:31:17;;;;;;;1.88;0.40;;;7.60;99.90;;;;;;5009719;28;20048;-71
2022/12/26 11:33:44;;;;;;;5.68;0.68;;;7.60;99.90;;;;;;5005130;28;20034;-70
2022/12/26 11:36:21;;;;;;;5.35;0.47;;;7.70;99.90;;;;;;4999583;28;20100;-71
2022/12/26 11:38:53;;;;;;;7.45;0.85;;;7.80;99.90;;;;;;5016716;28;20045;-71
2022/12/26 11:41:40;;;;;;;3.63;0.30;;;7.80;99.90;;;;;;5015514;28;20108;-71
2022/12/26 11:44:14;;;;;;;4.35;0.75;;;7.90;99.90;;;;;;5016602;28;20108;-70
2022/12/26 11:46:55;;;;;;;1.10;0.55;;;7.90;99.90;;;;;;5017303;28;20136;-70
2022/12/26 11:49:30;;;;;;;;;;;7.90;99.90;;;;;;4997635;28;20038;-70
2022/12/26 11:51:57;;;;;;;3.08;1.45;;;7.90;99.90;;;;;;5013908;28;20000;-71
2022/12/26 11:54:34;;;;;;;5.00;0.45;;;7.80;99.90;;;;;;5018558;28;20037;-70
2022/12/26 11:57:21;;;;;;;2.30;0.73;;;7.70;99.90;;;;;;5014576;28;20053;-69
2022/12/26 11:59:47;;;;;;;5.72;0.38;;;7.60;99.90;;;;;;5018050;28;20072;-70
2022/12/26 12:02:22;;;;;;;3.85;0.40;;;7.50;99.90;;;;;;5019106;28;20049;-71
2022/12/26 12:04:49;;;;;;;5.38;1.25;;;7.40;99.90;;;;;;5017935;28;20113;-71
2022/12/26 12:07:42;;;;;;;6.47;0.60;;;7.40;99.90;;;;;;5019899;28;20042;-68
2022/12/26 12:10:08;;;;;;;3.47;0.30;;;7.50;99.90;;;;;;5000266;28;20034;-71
2022/12/26 12:12:46;;;;;;;1.67;0.30;;;7.40;99.90;;;;;;5014324;28;20049;-71
2022/12/26 12:15:20;;;;;;;3.40;0.43;;;7.40;99.90;;;;;;5012765;28;20117;-71
2022/12/26 12:18:28;;;;;;;3.97;0.50;;;7.30;99.90;;;;;;4992701;28;20120;-69
2022/12/26 12:21:15;;;;;;;5.30;0.50;;;7.30;99.90;;;;;;5016245;28;20034;-72
2022/12/26 12:24:14;;;;;;;4.32;0.63;;;7.30;99.90;;;;;;5018245;28;20050;-70
2022/12/26 12:27:00;;;;;;;2.53;0.32;;;7.30;99.90;;;;;;5010821;28;20493;-70
2022/12/26 12:29:53;;;;;;;2.38;0.70;;;7.30;99.90;;;;;;5012746;28;20569;-71
2022/12/26 12:32:25;;;;;;;1.73;0.20;;;7.40;99.90;;;;;;5012547;28;20022;-70
2022/12/26 12:35:23;;;;;;;2.83;0.30;;;7.40;99.90;;;;;;5013279;28;20041;-71
2022/12/26 12:38:14;;;;;;;2.17;0.25;;;7.40;99.90;;;;;;5001845;28;20034;-67
2022/12/26 12:40:42;;;;;;;7.00;0.57;;;7.50;99.90;;;;;;5015459;28;20072;-68
2022/12/26 12:43:22;;;;;;;5.40;0.30;;;7.60;99.90;;;;;;5015763;28;20038;-69
2022/12/26 12:46:00;;;;;;;2.30;0.30;;;7.50;99.90;;;;;;5012503;28;20042;-70
2022/12/26 12:48:34;;;;;;;9.20;0.57;;;7.50;99.90;;;;;;5017338;28;20091;-68
2022/12/26 12:51:07;;;;;;;2.25;0.75;;;7.40;99.90;;;;;;5016775;28;20042;-70
2022/12/26 12:54:16;;;;;;;3.58;0.20;;;7.40;99.90;;;;;;5018207;28;20047;-70
2022/12/26 12:57:00;;;;;;;4.35;0.40;;;7.30;99.90;;;;;;5017923;28;20089;-71
2022/12/26 12:59:28;;;;;;;6.05;0.38;;;7.30;99.90;;;;;;5013292;28;20044;-70
2022/12/26 13:01:57;;;;;;;3.95;1.15;;;7.30;99.90;;;;;;5019568;28;20445;-72
2022/12/26 13:04:33;;;;;;;3.53;0.40;;;7.20;99.90;;;;;;5014960;28;20049;-69
2022/12/26 13:07:08;;;;;;;5.80;1.05;;;7.10;99.90;;;;;;5015887;28;20033;-71
2022/12/26 13:09:41;;;;;;;3.38;0.73;;;7.10;99.90;;;;;;5000750;28;20512;-70
2022/12/26 13:12:13;;;;;;;5.10;0.47;;;7.10;99.90;;;;;;5015034;28;20042;-71
2022/12/26 13:14:51;;;;;;;7.72;0.70;;;7.10;99.90;;;;;;5013190;28;20525;-70
2022/12/26 13:17:26;;;;;;;5.50;1.00;;;7.10;99.90;;;;;;5012810;28;20449;-71
2022/12/26 13:20:16;;;;;;;6.18;1.20;;;7.20;99.90;;;;;;5014592;28;20040;-71
2022/12/26 13:25:40;;;;;;;7.72;1.95;;;7.30;99.90;;;;;;5011905;28;20044;-70
2022/12/26 13:28:14;;;;;;;6.43;2.35;;;7.30;99.90;;;;;;4999683;28;20040;-72
2022/12/26 13:30:41;;;;;;;6.35;1.30;;;7.40;99.90;;;;;;5016045;28;20033;-71
2022/12/26 13:33:13;;;;;;;8.30;1.58;;;7.40;99.90;;;;;;5016390;28;20080;-70
2022/12/26 13:35:54;;;;;;;7.45;1.45;;;7.40;99.90;;;;;;5013897;28;20120;-70
2022/12/26 13:38:21;;;;;;;6.25;0.65;;;7.50;99.90;;;;;;5011330;28;20062;-69
2022/12/26 13:43:53;;;;;;;4.75;0.47;;;7.50;99.90;;;;;;5011256;28;20029;-71
2022/12/26 13:44:16;;;;;;;10.55;0.80;;;7.50;99.90;;;;;;5016958;28;20022;-71
2022/12/26 13:46:43;;;;;;;3.20;0.30;;;7.40;99.90;;;;;;5011173;28;20148;-71
2022/12/26 13:49:34;;;;;;;7.25;0.70;;;7.40;99.90;;;;;;5016605;28;20296;-70
2022/12/26 13:52:09;;;;;;;3.50;1.17;;;7.30;99.90;;;;;;5014044;28;20251;-73
2022/12/26 13:54:36;;;;;;;10.52;0.98;;;7.30;99.90;;;;;;5011622;28;20546;-69
2022/12/26 13:57:26;;;;;;;11.68;0.85;;;7.20;99.90;;;;;;5010055;28;20113;-73
2022/12/26 14:00:00;;;;;;;4.60;0.63;;;7.20;99.90;;;;;;5013339;28;20088;-70
2022/12/26 14:02:59;;;;;;;16.17;0.77;;;7.10;99.90;;;;;;5017703;28;20798;-70
2022/12/26 14:05:40;;;;;;;6.25;0.65;;;7.10;99.90;;;;;;5013789;28;20372;-70
2022/12/26 14:08:24;;;;;;;9.60;1.83;;;7.00;99.90;;;;;;4997996;28;20041;-68
2022/12/26 14:11:01;;;;;;;5.88;0.40;;;6.90;99.90;;;;;;5016213;28;20038;-70
2022/12/26 14:13:32;;;;;;;3.15;0.45;;;6.80;99.90;;;;;;5020915;28;20053;-71
2022/12/26 14:16:21;;;;;;;10.10;0.52;;;6.80;99.90;;;;;;5020144;28;20034;-71
2022/12/26 14:18:57;;;;;;;4.20;0.55;;;6.70;99.90;;;;;;5014428;28;20828;-70
2022/12/26 14:21:48;;;;;;;3.38;0.90;;;6.70;99.90;;;;;;5016598;28;20041;-71
2022/12/26 14:24:35;;;;;;;6.18;1.63;;;6.70;99.90;;;;;;5014249;28;20046;-70
2022/12/26 14:27:30;;;;;;;4.10;0.50;;;6.70;99.90;;;;;;5020119;28;20068;-72
2022/12/26 14:30:34;;;;;;;3.53;0.50;;;6.60;99.90;;;;;;5015349;28;20053;-73
2022/12/26 14:33:35;;;;;;;2.80;0.40;;;6.60;99.90;;;;;;5017820;28;20041;-71
2022/12/26 14:36:18;;;;;;;5.70;1.35;;;6.60;99.90;;;;;;4993277;28;20042;-72
2022/12/26 14:39:11;;;;;;;6.45;0.70;;;6.60;99.90;;;;;;5015189;28;20034;-70
2022/12/26 14:44:54;;;;;;;2.85;0.40;;;6.60;99.90;;;;;;5006660;28;20050;-69
2022/12/26 14:47:43;;;;;;;3.92;0.60;;;6.50;99.90;;;;;;5020809;28;20120;-68
2022/12/26 14:50:38;;;;;;;4.22;0.52;;;6.60;99.90;;;;;;5022020;28;20037;-70
2022/12/26 14:53:27;;;;;;;3.50;0.55;;;6.60;99.90;;;;;;5018864;28;20037;-68
2022/12/26 14:55:52;;;;;;;6.60;0.75;;;6.70;99.90;;;;;;5011866;28;20092;-71
2022/12/26 14:58:37;;;;;;;6.72;0.70;;;6.70;99.90;;;;;;5011309;28;20490;-71
2022/12/26 15:01:08;;;;;;;2.53;0.40;;;6.70;99.90;;;;;;5009473;28;20029;-71
2022/12/26 15:03:55;;;;;;;5.70;2.33;;;6.70;99.90;;;;;;5007597;28;20957;-71
2022/12/26 15:06:20;;;;;;;11.50;3.50;;;6.60;99.90;;;;;;5008029;28;20045;-68
2022/12/26 15:08:49;;;;;;;13.65;2.08;;;6.50;99.90;;;;;;5009782;28;20030;-69
2022/12/26 15:11:52;;;;;;;10.23;1.67;;;6.50;99.90;;;;;;5007606;28;20430;-69
2022/12/26 15:14:32;;;;;;;6.85;1.35;;;6.40;99.90;;;;;;5005006;28;20044;-68
2022/12/26 15:17:19;;;;;;;3.13;0.90;;;6.30;99.90;;;;;;5009900;28;20065;-71
2022/12/26 15:20:25;;;;;;;7.85;0.90;;;6.20;99.90;;;;;;5004857;28;20030;-71
2022/12/26 15:22:50;;;;;;;6.35;2.05;;;6.20;99.90;;;;;;5005036;28;20037;-71
2022/12/26 15:25:19;;;;;;;7.35;1.30;;;6.10;99.90;;;;;;5005681;28;20026;-71
2022/12/26 15:27:56;;;;;;;6.15;1.58;;;6.00;99.90;;;;;;5007017;28;20108;-71
2022/12/26 15:30:39;;;;;;;6.13;1.00;;;6.00;99.90;;;;;;5006853;28;20478;-69
2022/12/26 15:33:34;;;;;;;6.68;1.23;;;6.00;99.90;;;;;;5011502;28;20030;-71
2022/12/26 15:36:23;;;;;;;5.60;1.42;;;5.90;99.90;;;;;;5008799;28;20030;-71